Accueil
METAR-TAF:

METAR-TAF

Aéroports :

Aéroport de Saint-Jean

Saint-Jean, Nouveau-Brunswick, Canada

latitude: 45-20N, longitude: 065-53W, altitude: 103 m

Observation

Le bulletin a été fait il y a 49 minutes, à 06:00 UTC
Vent calme
Température -4°C
Humidité 93%
Pression 1016 hPa
Visibilité: 24.1 km
Nuages fragmentés à une hauteur de 4600 ft
Ciel couvert à une hauteur de 16000 ft

METAR: CYSJ 170600Z 00000KT 15SM BKN046 OVC160 M04/M05 A2999 RMK SC6AC2 SLP164

Heure: 02:49 (06:49 UTC)

Prévision

Le bulletin a été fait il y a 1 heure et 11 minutes, à 05:38 UTC
Prévision valable du 17 à 06 UTC au 17 à 18 UTC
Vent 3 kt de direction variable
Visibilité: 10 km
Nuages fragmentés à une hauteur de 4000 ft
A partir de 17 à 1400 UTC
Vent 10 kt de ouest
Visibilité: 10 km
Nuages épars à une hauteur de 4000 ft

TAF: CYSJ 170538Z 1706/1718 VRB03KT P6SM BKN040 FM171400 28010KT P6SM SCT040 RMK NXT FCST BY 171200Z

Observations et prévisions météorologiques de plus de 4000 aéroports (messages METAR et TAF).

Les stations disponibles sont représentées par des disques jaunes et rouges sur la carte.

Passer la souris dessus pour voir le nom de la station.

Cliquer dessus pour voir les observations et prévisions météorologiques.

Pour changer de carte: cliquez sur les boutons verts avec une croix noire pour zoomer, sur le bouton vert avec un tiret pour effectuer un zoom arrière, ou sur les flèches vertes pour les cartes adjacentes.


METAR-TAF: